createdAt,value
2022-08-07T00:00:56.937Z,22.30
2022-08-07T00:02:57.828Z,22.28
2022-08-07T00:04:56.301Z,22.27
2022-08-07T00:06:54.592Z,22.30
2022-08-07T00:08:54.229Z,22.28
2022-08-07T00:10:58.135Z,22.25
2022-08-07T00:12:57.683Z,22.25
2022-08-07T00:14:59.172Z,22.28
2022-08-07T00:16:57.708Z,22.30
2022-08-07T00:18:56.037Z,22.39
2022-08-07T00:20:57.477Z,22.36
2022-08-07T00:22:59.757Z,22.31
2022-08-07T00:24:59.492Z,22.32
2022-08-07T00:27:06.758Z,22.31
2022-08-07T00:29:06.153Z,22.38
2022-08-07T00:31:12.699Z,22.41
2022-08-07T00:33:14.739Z,22.42
2022-08-07T00:35:13.085Z,22.51
2022-08-07T00:37:15.077Z,22.50
2022-08-07T00:39:16.940Z,22.49
2022-08-07T00:41:17.024Z,22.55
2022-08-07T00:44:00.521Z,22.54
2022-08-07T00:45:34.291Z,22.45
2022-08-07T00:48:07.792Z,22.40
2022-08-07T00:50:20.774Z,22.47
2022-08-07T00:52:11.035Z,22.57
2022-08-07T00:54:11.073Z,22.54
2022-08-07T00:56:13.998Z,22.46
2022-08-07T00:58:14.363Z,22.39
2022-08-07T01:00:15.738Z,22.34
2022-08-07T01:02:28.708Z,22.27
2022-08-07T01:04:27.912Z,22.22
2022-08-07T01:06:29.725Z,22.19
2022-08-07T01:08:28.308Z,22.16
2022-08-07T01:10:26.679Z,22.13
2022-08-07T01:12:29.628Z,22.06
2022-08-07T01:14:31.257Z,21.99
2022-08-07T01:16:31.078Z,21.95
2022-08-07T01:18:30.987Z,21.85
2022-08-07T01:20:43.066Z,21.89
2022-08-07T01:22:46.652Z,21.93
2022-08-07T01:24:53.256Z,21.97
2022-08-07T01:26:53.775Z,22.00
2022-08-07T01:28:55.281Z,21.94
2022-08-07T01:30:58.315Z,21.91
2022-08-07T01:32:58.364Z,21.90
2022-08-07T01:34:59.460Z,21.93
2022-08-07T01:36:58.465Z,21.90
2022-08-07T01:39:01.246Z,21.88
2022-08-07T01:41:05.484Z,21.86
2022-08-07T01:43:05.972Z,21.89
2022-08-07T01:45:15.678Z,21.95
2022-08-07T01:48:20.615Z,21.98
2022-08-07T01:49:40.928Z,21.94
2022-08-07T01:52:01.573Z,22.07
2022-08-07T01:54:12.761Z,22.19
2022-08-07T01:56:29.008Z,22.25
2022-08-07T01:58:33.418Z,22.21
2022-08-07T02:00:35.513Z,22.03
2022-08-07T02:03:18.835Z,21.95
2022-08-07T02:05:16.073Z,21.68
2022-08-07T02:07:50.030Z,21.54
2022-08-07T02:09:59.098Z,21.63
2022-08-07T02:12:17.762Z,21.66
2022-08-07T02:14:36.277Z,21.64
2022-08-07T02:16:45.474Z,21.76
2022-08-07T02:18:47.225Z,21.80
2022-08-07T02:20:51.864Z,21.57
2022-08-07T02:22:59.645Z,21.41
2022-08-07T02:25:01.901Z,21.22
2022-08-07T02:27:07.070Z,21.01
2022-08-07T02:29:13.673Z,20.86
2022-08-07T02:31:28.453Z,20.70
2022-08-07T02:33:33.025Z,20.60
2022-08-07T02:36:29.579Z,20.47
2022-08-07T02:38:12.404Z,20.46
2022-08-07T02:40:30.673Z,20.47
2022-08-07T02:42:33.984Z,20.35
2022-08-07T02:44:34.402Z,20.34
2022-08-07T02:46:37.192Z,20.23
2022-08-07T02:48:55.071Z,20.10
2022-08-07T02:50:56.402Z,20.29
2022-08-07T02:53:03.285Z,20.30
2022-08-07T02:55:27.368Z,20.37
2022-08-07T02:57:34.092Z,20.42
2022-08-07T02:59:35.873Z,20.40
2022-08-07T03:01:40.502Z,20.31
2022-08-07T03:03:49.622Z,20.27
2022-08-07T03:05:55.965Z,20.25
2022-08-07T03:08:07.395Z,20.29
2022-08-07T03:10:11.838Z,20.44
2022-08-07T03:12:21.874Z,20.64
2022-08-07T03:14:24.026Z,20.80
2022-08-07T03:16:27.792Z,20.87
2022-08-07T03:18:34.991Z,20.76
2022-08-07T03:20:36.191Z,20.63
2022-08-07T03:22:35.674Z,20.57
2022-08-07T03:24:34.571Z,20.59
2022-08-07T03:26:43.059Z,20.71
2022-08-07T03:28:56.765Z,20.73
2022-08-07T03:31:12.819Z,20.74
2022-08-07T03:33:14.532Z,20.73
2022-08-07T03:35:26.163Z,20.75
2022-08-07T03:37:27.681Z,20.72
2022-08-07T03:39:59.113Z,20.80
2022-08-07T03:41:50.847Z,20.92
2022-08-07T03:43:57.383Z,20.75
2022-08-07T03:46:03.756Z,20.76
2022-08-07T03:48:11.525Z,20.90
2022-08-07T03:50:11.066Z,21.09
2022-08-07T03:52:22.307Z,21.51
2022-08-07T03:54:35.770Z,21.86
2022-08-07T03:57:04.030Z,22.59
2022-08-07T03:59:10.156Z,22.88
2022-08-07T04:01:17.473Z,22.91
2022-08-07T04:03:18.155Z,23.35
2022-08-07T04:05:24.173Z,24.04
2022-08-07T04:07:46.531Z,24.28
2022-08-07T04:09:51.222Z,24.62
2022-08-07T04:12:23.355Z,24.88
2022-08-07T04:14:37.998Z,25.33
2022-08-07T04:16:35.430Z,25.75
2022-08-07T04:18:59.643Z,25.41
2022-08-07T04:20:55.291Z,25.56
2022-08-07T04:23:02.004Z,25.12
2022-08-07T04:25:12.629Z,25.03
2022-08-07T04:27:20.311Z,25.08
2022-08-07T04:29:19.955Z,24.40
2022-08-07T04:32:02.346Z,24.11
2022-08-07T04:33:55.169Z,23.81
2022-08-07T04:35:56.623Z,23.62
2022-08-07T04:38:06.796Z,23.34
2022-08-07T04:40:08.361Z,22.93
2022-08-07T04:42:07.231Z,22.43
2022-08-07T04:44:11.763Z,22.13
2022-08-07T04:46:25.950Z,22.40
2022-08-07T04:48:36.731Z,22.38
2022-08-07T04:50:40.746Z,22.64
2022-08-07T04:52:52.856Z,22.97
2022-08-07T04:55:15.195Z,23.10
2022-08-07T04:58:12.051Z,23.74
2022-08-07T05:00:14.603Z,23.66
2022-08-07T05:02:20.540Z,23.68
2022-08-07T05:04:23.709Z,24.17
2022-08-07T05:06:43.072Z,24.72
2022-08-07T05:09:00.793Z,24.34
2022-08-07T05:11:07.066Z,23.96
2022-08-07T05:14:55.126Z,23.79
2022-08-07T05:15:40.115Z,23.72
2022-08-07T05:17:52.068Z,24.16
2022-08-07T05:19:55.971Z,24.33
2022-08-07T05:22:01.993Z,24.72
2022-08-07T05:24:12.815Z,24.76
2022-08-07T05:26:23.534Z,25.01
2022-08-07T05:28:27.976Z,25.12
2022-08-07T05:30:32.780Z,25.52
2022-08-07T05:32:34.148Z,25.99
2022-08-07T05:34:33.887Z,26.26
2022-08-07T05:36:35.483Z,26.27
2022-08-07T05:39:00.058Z,26.47
2022-08-07T05:41:01.109Z,26.60
2022-08-07T05:42:59.906Z,26.99
2022-08-07T05:45:14.377Z,27.24
2022-08-07T05:47:20.060Z,27.33
2022-08-07T05:49:22.586Z,27.22
2022-08-07T05:51:23.809Z,26.99
2022-08-07T05:54:13.263Z,27.39
2022-08-07T05:56:01.856Z,27.56
2022-08-07T05:58:01.819Z,27.72
2022-08-07T06:00:01.984Z,27.30
2022-08-07T06:02:18.801Z,28.05
2022-08-07T06:04:26.368Z,28.19
2022-08-07T06:06:32.657Z,28.66
2022-08-07T06:08:38.090Z,28.79
2022-08-07T06:10:42.903Z,28.37
2022-08-07T06:12:42.385Z,28.18
2022-08-07T06:14:41.112Z,28.07
2022-08-07T06:16:50.765Z,27.42
2022-08-07T06:18:59.152Z,26.79
2022-08-07T06:22:16.648Z,26.87
2022-08-07T06:23:46.241Z,27.23
2022-08-07T06:25:36.179Z,27.62
2022-08-07T06:28:00.098Z,28.11
2022-08-07T06:29:55.677Z,28.65
2022-08-07T06:31:57.068Z,28.71
2022-08-07T06:33:55.600Z,28.92
2022-08-07T06:36:13.219Z,28.86
2022-08-07T06:38:25.720Z,28.73
2022-08-07T06:40:34.453Z,28.67
2022-08-07T06:42:38.313Z,28.79
2022-08-07T06:44:39.739Z,28.73
2022-08-07T06:46:40.844Z,28.58
2022-08-07T06:48:44.807Z,28.53
2022-08-07T06:50:50.416Z,28.96
2022-08-07T06:52:55.948Z,29.12
2022-08-07T06:55:31.894Z,29.02
2022-08-07T06:57:19.801Z,29.21
2022-08-07T07:00:11.415Z,29.41
2022-08-07T07:02:02.449Z,29.19
2022-08-07T07:04:16.430Z,28.94
2022-08-07T07:06:26.142Z,28.92
2022-08-07T07:08:27.832Z,29.44
2022-08-07T07:10:30.461Z,29.97
2022-08-07T07:12:41.723Z,30.38
2022-08-07T07:14:53.049Z,29.82
2022-08-07T07:16:54.042Z,29.96
2022-08-07T07:18:58.888Z,30.15
2022-08-07T07:20:59.154Z,29.60
2022-08-07T07:24:08.527Z,29.77
2022-08-07T07:26:35.183Z,29.75
2022-08-07T07:27:58.524Z,29.42
2022-08-07T07:30:09.193Z,29.26
2022-08-07T07:32:14.484Z,29.15
2022-08-07T07:34:18.134Z,29.37
2022-08-07T07:36:18.063Z,29.29
2022-08-07T07:38:20.790Z,29.64
2022-08-07T07:42:55.832Z,29.68
2022-08-07T07:44:56.777Z,29.85
2022-08-07T07:47:09.300Z,29.27
2022-08-07T07:50:34.580Z,29.75
2022-08-07T07:54:17.495Z,30.18
2022-08-07T07:56:34.602Z,30.03
2022-08-07T07:58:41.109Z,30.03
2022-08-07T08:00:48.705Z,30.42
2022-08-07T08:03:04.500Z,30.16
2022-08-07T08:05:11.344Z,29.84
2022-08-07T08:07:20.243Z,29.82
2022-08-07T08:12:02.389Z,29.98
2022-08-07T08:14:31.198Z,30.25
2022-08-07T08:16:37.783Z,30.59
2022-08-07T08:18:39.674Z,31.00
2022-08-07T08:20:40.283Z,31.34
2022-08-07T08:23:01.929Z,31.51
2022-08-07T08:25:43.053Z,31.89
2022-08-07T08:27:56.492Z,31.45
2022-08-07T08:30:04.703Z,31.82
2022-08-07T08:32:18.619Z,31.73
2022-08-07T08:34:27.024Z,32.42
2022-08-07T08:36:30.491Z,32.54
2022-08-07T08:38:38.592Z,32.56
2022-08-07T08:40:52.870Z,33.64
2022-08-07T08:42:57.335Z,33.17
2022-08-07T08:45:05.495Z,32.67
2022-08-07T08:47:09.897Z,32.13
2022-08-07T08:49:33.209Z,32.63
2022-08-07T08:52:12.971Z,33.04
2022-08-07T08:54:07.765Z,34.17
2022-08-07T08:56:09.759Z,34.67
2022-08-07T08:58:20.416Z,35.11
2022-08-07T09:00:31.530Z,34.93
2022-08-07T09:02:43.756Z,34.94
2022-08-07T09:04:56.813Z,35.24
2022-08-07T09:07:03.415Z,35.44
2022-08-07T09:09:20.668Z,34.08
2022-08-07T09:11:50.653Z,34.59
2022-08-07T09:14:14.570Z,34.87
2022-08-07T09:16:30.008Z,34.42
2022-08-07T09:18:58.569Z,35.19
2022-08-07T09:21:13.982Z,36.10
2022-08-07T09:24:31.402Z,35.62
2022-08-07T09:26:34.545Z,36.49
2022-08-07T09:30:06.561Z,35.72
2022-08-07T09:31:04.829Z,34.87
2022-08-07T09:33:40.722Z,34.22
2022-08-07T09:36:05.469Z,34.56
2022-08-07T09:38:23.271Z,34.42
2022-08-07T09:40:33.178Z,34.96
2022-08-07T09:42:50.469Z,36.00
2022-08-07T09:47:25.693Z,36.49
2022-08-07T09:48:00.132Z,35.60
2022-08-07T09:50:00.977Z,35.25
2022-08-07T09:52:33.836Z,36.29
2022-08-07T09:54:37.415Z,36.06
2022-08-07T09:57:12.884Z,35.46
2022-08-07T09:59:31.079Z,34.13
2022-08-07T10:02:03.209Z,34.28
2022-08-07T10:04:32.601Z,35.04
2022-08-07T10:06:55.545Z,35.34
2022-08-07T10:09:15.416Z,35.33
2022-08-07T10:12:03.154Z,33.26
2022-08-07T10:14:07.104Z,32.19
2022-08-07T10:16:21.443Z,31.83
2022-08-07T10:18:50.666Z,33.42
2022-08-07T10:21:19.833Z,33.71
2022-08-07T10:24:04.906Z,32.54
2022-08-07T10:26:24.841Z,31.03
2022-08-07T10:28:43.452Z,31.08
2022-08-07T10:31:11.290Z,32.00
2022-08-07T10:34:05.806Z,32.41
2022-08-07T10:36:17.128Z,33.39
2022-08-07T10:38:48.448Z,32.37
2022-08-07T10:40:53.354Z,33.34
2022-08-07T10:43:02.473Z,33.86
2022-08-07T10:45:08.785Z,34.47
2022-08-07T10:47:31.187Z,34.51
2022-08-07T10:52:33.584Z,32.57
2022-08-07T10:54:42.534Z,32.57
2022-08-07T10:57:08.517Z,32.00
2022-08-07T10:59:22.182Z,30.79
2022-08-07T11:01:51.379Z,29.80
2022-08-07T11:04:16.520Z,29.34
2022-08-07T11:06:26.878Z,29.14
2022-08-07T11:08:34.114Z,29.10
2022-08-07T11:10:39.309Z,29.40
2022-08-07T11:12:44.185Z,29.92
2022-08-07T11:14:59.822Z,30.37
2022-08-07T11:17:07.298Z,30.53
2022-08-07T11:19:12.772Z,30.55
2022-08-07T11:21:18.957Z,30.54
2022-08-07T11:23:30.826Z,29.97
2022-08-07T11:25:48.041Z,29.77
2022-08-07T11:28:02.466Z,29.83
2022-08-07T11:30:17.663Z,29.88
2022-08-07T11:32:25.866Z,29.25
2022-08-07T11:34:32.430Z,29.63
2022-08-07T11:36:45.091Z,29.92
2022-08-07T11:38:51.234Z,30.34
2022-08-07T11:40:58.596Z,29.89
2022-08-07T11:43:04.480Z,29.12
2022-08-07T11:45:14.410Z,28.93
2022-08-07T11:47:39.044Z,28.80
2022-08-07T11:50:32.003Z,28.84
2022-08-07T11:52:47.020Z,28.49
2022-08-07T11:55:02.610Z,28.52
2022-08-07T11:57:59.506Z,28.69
2022-08-07T12:00:10.535Z,28.69
2022-08-07T12:02:32.250Z,28.98
2022-08-07T12:04:46.506Z,29.65
2022-08-07T12:07:00.373Z,29.76
2022-08-07T12:09:09.198Z,29.34
2022-08-07T12:11:22.453Z,29.07
2022-08-07T12:13:37.236Z,29.19
2022-08-07T12:18:39.278Z,28.77
2022-08-07T12:20:49.526Z,28.48
2022-08-07T12:23:09.196Z,28.20
2022-08-07T12:26:05.351Z,28.05
2022-08-07T12:28:09.000Z,28.11
2022-08-07T12:30:10.034Z,27.90
2022-08-07T12:32:18.638Z,27.92
2022-08-07T12:34:21.883Z,27.78
2022-08-07T12:36:30.226Z,28.11
2022-08-07T12:38:42.916Z,27.94
2022-08-07T12:40:50.386Z,27.85
2022-08-07T12:42:55.199Z,28.06
2022-08-07T12:44:57.558Z,28.29
2022-08-07T12:47:08.750Z,28.47
2022-08-07T12:49:39.367Z,28.43
2022-08-07T12:51:51.272Z,28.40
2022-08-07T12:54:36.782Z,28.14
2022-08-07T12:56:34.802Z,28.08
2022-08-07T12:58:39.309Z,28.07
2022-08-07T13:00:50.113Z,28.34
2022-08-07T13:03:09.577Z,28.24
2022-08-07T13:06:02.708Z,28.38
2022-08-07T13:08:25.813Z,28.66
2022-08-07T13:10:51.351Z,28.84
2022-08-07T13:13:01.567Z,29.16
2022-08-07T13:15:09.738Z,29.14
2022-08-07T13:17:21.362Z,28.92
2022-08-07T13:19:50.675Z,28.62
2022-08-07T13:22:06.172Z,28.83
2022-08-07T13:24:25.875Z,28.91
2022-08-07T13:26:38.467Z,29.02
2022-08-07T13:28:48.484Z,28.97
2022-08-07T13:31:02.157Z,28.88
2022-08-07T13:34:11.694Z,28.79
2022-08-07T13:35:59.501Z,28.82
2022-08-07T13:37:58.745Z,28.88
2022-08-07T13:40:36.154Z,29.08
2022-08-07T13:42:34.128Z,28.90
2022-08-07T13:44:39.876Z,28.82
2022-08-07T13:46:49.966Z,28.89
2022-08-07T13:48:58.350Z,29.09
2022-08-07T13:51:01.427Z,29.17
2022-08-07T13:53:01.218Z,29.39
2022-08-07T13:55:06.766Z,29.44
2022-08-07T13:57:14.660Z,29.32
2022-08-07T13:59:27.740Z,29.06
2022-08-07T14:01:29.007Z,28.74
2022-08-07T14:04:05.182Z,28.68
2022-08-07T14:05:58.071Z,28.73
2022-08-07T14:08:01.346Z,28.62
2022-08-07T14:10:12.645Z,28.69
2022-08-07T14:12:29.593Z,28.62
2022-08-07T14:14:32.954Z,28.77
2022-08-07T14:16:35.354Z,28.75
2022-08-07T14:18:42.760Z,28.63
2022-08-07T14:20:54.630Z,28.54
2022-08-07T14:23:01.805Z,28.52
2022-08-07T14:25:09.640Z,28.28
2022-08-07T14:27:16.100Z,28.08
2022-08-07T14:30:05.897Z,27.96
2022-08-07T14:31:57.940Z,27.79
2022-08-07T14:34:00.682Z,27.75
2022-08-07T14:36:00.783Z,27.72
2022-08-07T14:38:05.494Z,27.54
2022-08-07T14:40:16.870Z,27.48
2022-08-07T14:42:32.440Z,27.43
2022-08-07T14:44:34.772Z,27.45
2022-08-07T14:46:35.366Z,27.68
2022-08-07T14:48:37.065Z,27.73
2022-08-07T14:50:37.670Z,27.93
2022-08-07T14:52:39.024Z,28.00
2022-08-07T14:54:42.119Z,28.15
2022-08-07T14:57:02.091Z,28.23
2022-08-07T14:59:13.958Z,28.22
2022-08-07T15:01:42.565Z,28.12
2022-08-07T15:03:52.259Z,28.09
2022-08-07T15:05:54.661Z,28.03
2022-08-07T15:08:13.989Z,28.20
2022-08-07T15:10:19.634Z,28.20
2022-08-07T15:12:30.520Z,28.09
2022-08-07T15:14:31.951Z,28.26
2022-08-07T15:16:55.775Z,28.31
2022-08-07T15:19:02.622Z,28.32
2022-08-07T15:25:53.403Z,28.42
2022-08-07T15:28:33.173Z,28.49
2022-08-07T15:32:50.736Z,28.43
2022-08-07T15:35:04.207Z,28.42
2022-08-07T15:37:06.913Z,28.46
2022-08-07T15:39:10.386Z,28.53
2022-08-07T15:41:23.488Z,28.51
2022-08-07T15:43:53.069Z,28.46
2022-08-07T15:45:58.254Z,28.39
2022-08-07T15:48:04.893Z,28.29
2022-08-07T15:50:07.098Z,28.10
2022-08-07T15:52:13.639Z,27.99
2022-08-07T15:54:15.105Z,27.94
2022-08-07T15:56:15.233Z,27.90
2022-08-07T15:58:20.926Z,27.79
2022-08-07T16:00:31.503Z,27.76
2022-08-07T16:02:39.706Z,27.68
2022-08-07T16:04:40.006Z,27.62
2022-08-07T16:06:43.923Z,27.73
2022-08-07T16:08:45.863Z,27.80
2022-08-07T16:10:49.214Z,27.74
2022-08-07T16:13:05.814Z,27.81
2022-08-07T16:15:55.209Z,27.81
2022-08-07T16:18:03.952Z,27.82
2022-08-07T16:20:33.998Z,27.87
2022-08-07T16:23:05.474Z,27.92
2022-08-07T16:25:53.026Z,27.91
2022-08-07T16:27:59.744Z,27.84
2022-08-07T16:30:31.870Z,27.74
2022-08-07T16:32:35.167Z,27.60
2022-08-07T16:34:56.809Z,27.36
2022-08-07T16:38:06.628Z,27.15
2022-08-07T16:40:28.720Z,27.18
2022-08-07T16:42:42.484Z,27.23
2022-08-07T16:45:15.030Z,27.18
2022-08-07T16:48:13.433Z,26.99
2022-08-07T16:50:39.348Z,25.72
2022-08-07T16:53:20.751Z,23.48
2022-08-07T16:55:47.135Z,22.58
2022-08-07T16:58:02.701Z,22.08
2022-08-07T17:00:15.090Z,21.83
2022-08-07T17:03:05.841Z,21.79
2022-08-07T17:06:02.224Z,21.88
2022-08-07T17:07:55.760Z,22.22
2022-08-07T17:10:06.419Z,22.26
2022-08-07T17:12:34.167Z,22.42
2022-08-07T17:14:43.142Z,22.74
2022-08-07T17:16:55.751Z,22.76
2022-08-07T17:19:04.769Z,22.66
2022-08-07T17:21:04.119Z,22.68
2022-08-07T17:23:36.971Z,22.62
2022-08-07T17:25:51.711Z,22.84
2022-08-07T17:28:00.343Z,22.95
2022-08-07T17:30:16.052Z,22.98
2022-08-07T17:32:30.860Z,23.01
2022-08-07T17:35:02.754Z,23.07
2022-08-07T17:37:09.714Z,22.93
2022-08-07T17:39:20.927Z,22.71
2022-08-07T17:42:02.452Z,22.78
2022-08-07T17:44:03.230Z,22.74
2022-08-07T17:46:13.532Z,22.70
2022-08-07T17:48:13.280Z,22.67
2022-08-07T17:50:19.330Z,22.65
2022-08-07T17:52:30.663Z,22.78
2022-08-07T17:54:40.244Z,22.77
2022-08-07T17:57:01.220Z,22.85
2022-08-07T17:59:09.074Z,22.86
2022-08-07T18:01:21.254Z,23.05
2022-08-07T18:03:25.665Z,23.00
2022-08-07T18:06:03.500Z,23.21
2022-08-07T18:08:14.021Z,23.29
2022-08-07T18:10:32.162Z,23.33
2022-08-07T18:12:43.144Z,23.31
2022-08-07T18:14:46.621Z,23.18
2022-08-07T18:16:57.760Z,23.05
2022-08-07T18:21:08.596Z,22.95
2022-08-07T18:21:51.837Z,22.92
2022-08-07T18:24:02.165Z,22.94
2022-08-07T18:26:15.032Z,23.17
2022-08-07T18:28:36.109Z,23.30
2022-08-07T18:30:51.104Z,23.31
2022-08-07T18:33:55.105Z,23.34
2022-08-07T18:36:32.668Z,23.46
2022-08-07T18:38:55.411Z,23.56
2022-08-07T18:41:10.222Z,23.25
2022-08-07T18:43:37.227Z,23.19
2022-08-07T18:46:21.920Z,23.16
2022-08-07T18:49:03.599Z,23.36
2022-08-07T18:51:04.165Z,23.40
2022-08-07T18:53:12.548Z,23.27
2022-08-07T18:55:42.700Z,23.28
2022-08-07T18:57:58.632Z,23.50
2022-08-07T19:00:33.363Z,23.59
2022-08-07T19:02:36.915Z,23.42
2022-08-07T19:04:59.589Z,23.50
2022-08-07T19:07:10.915Z,23.58
2022-08-07T19:09:55.957Z,23.65
2022-08-07T19:11:52.053Z,23.78
2022-08-07T19:14:17.309Z,23.83
2022-08-07T19:17:01.406Z,23.67
2022-08-07T19:19:00.904Z,23.58
2022-08-07T19:21:09.858Z,23.58
2022-08-07T19:23:29.888Z,23.54
2022-08-07T19:26:22.683Z,23.67
2022-08-07T19:28:56.497Z,23.71
2022-08-07T19:31:00.066Z,23.78
2022-08-07T19:32:46.307Z,23.85
2022-08-07T19:34:50.067Z,23.78
2022-08-07T19:36:53.626Z,23.85
2022-08-07T19:38:56.737Z,23.86
2022-08-07T19:41:00.561Z,23.86
2022-08-07T19:42:59.522Z,23.88
2022-08-07T19:46:06.249Z,23.77
2022-08-07T19:47:56.079Z,23.68
2022-08-07T19:50:53.452Z,23.41
2022-08-07T19:52:59.141Z,23.52
2022-08-07T19:55:00.143Z,23.60
2022-08-07T19:58:03.626Z,23.42
2022-08-07T19:59:24.591Z,23.28
2022-08-07T20:01:57.682Z,23.39
2022-08-07T20:03:58.833Z,23.55
2022-08-07T20:06:03.262Z,23.56
2022-08-07T20:08:04.303Z,23.55
2022-08-07T20:10:37.128Z,23.47
2022-08-07T20:12:34.326Z,23.45
2022-08-07T20:14:36.707Z,23.35
2022-08-07T20:16:56.555Z,23.27
2022-08-07T20:18:58.961Z,23.15
2022-08-07T20:20:59.249Z,23.08
2022-08-07T20:23:23.295Z,23.00
2022-08-07T20:25:25.691Z,22.99
2022-08-07T20:27:46.467Z,22.96
2022-08-07T20:29:58.427Z,22.89
2022-08-07T20:32:00.068Z,22.70
2022-08-07T20:34:02.016Z,22.74
2022-08-07T20:36:03.379Z,22.84
2022-08-07T20:38:03.051Z,22.77
2022-08-07T20:40:05.305Z,22.69
2022-08-07T20:42:23.924Z,22.53
2022-08-07T20:44:30.368Z,22.38
2022-08-07T20:46:33.355Z,22.16
2022-08-07T20:49:55.172Z,22.24
2022-08-07T20:51:09.616Z,22.19
2022-08-07T20:53:13.503Z,22.07
2022-08-07T20:55:16.173Z,22.03
2022-08-07T20:57:16.087Z,21.89
2022-08-07T21:00:04.606Z,21.85
2022-08-07T21:01:55.388Z,21.99
2022-08-07T21:04:19.472Z,22.10
2022-08-07T21:06:28.177Z,22.18
2022-08-07T21:08:38.292Z,22.25
2022-08-07T21:10:40.645Z,22.30
2022-08-07T21:12:39.795Z,22.14
2022-08-07T21:14:53.375Z,21.93
2022-08-07T21:18:00.741Z,21.76
2022-08-07T21:19:17.444Z,21.62
2022-08-07T21:21:21.461Z,21.49
2022-08-07T21:23:49.271Z,21.41
2022-08-07T21:26:03.118Z,21.46
2022-08-07T21:28:10.304Z,21.57
2022-08-07T21:30:15.492Z,21.65
2022-08-07T21:32:47.636Z,21.77
2022-08-07T21:34:48.533Z,21.66
2022-08-07T21:36:54.182Z,21.68
2022-08-07T21:39:45.493Z,21.57
2022-08-07T21:41:37.809Z,21.39
2022-08-07T21:43:57.067Z,21.26
2022-08-07T21:46:11.145Z,21.21
2022-08-07T21:48:27.088Z,21.16
2022-08-07T21:50:39.775Z,21.25
2022-08-07T21:52:49.267Z,21.24
2022-08-07T21:54:59.442Z,21.17
2022-08-07T21:57:30.858Z,21.10
2022-08-07T22:00:04.646Z,21.03
2022-08-07T22:02:11.497Z,21.07
2022-08-07T22:04:17.743Z,21.12
2022-08-07T22:06:28.874Z,21.05
2022-08-07T22:08:38.990Z,21.04
2022-08-07T22:10:42.295Z,20.96
2022-08-07T22:12:46.841Z,21.02
2022-08-07T22:15:00.748Z,21.08
2022-08-07T22:17:02.052Z,21.16
2022-08-07T22:19:16.229Z,21.02
2022-08-07T22:21:20.411Z,21.06
2022-08-07T22:23:23.736Z,21.01
2022-08-07T22:25:42.991Z,21.20
2022-08-07T22:28:07.176Z,21.19
2022-08-07T22:30:17.154Z,21.02
2022-08-07T22:32:21.226Z,20.95
2022-08-07T22:34:35.818Z,20.92
2022-08-07T22:36:46.565Z,20.88
2022-08-07T22:38:52.275Z,20.85
2022-08-07T22:40:58.014Z,20.95
2022-08-07T22:43:02.188Z,20.88
2022-08-07T22:45:10.900Z,20.89
2022-08-07T22:48:01.136Z,20.79
2022-08-07T22:50:39.059Z,20.83
2022-08-07T22:53:15.134Z,20.71
2022-08-07T22:55:30.606Z,20.66
2022-08-07T22:57:55.604Z,20.70
2022-08-07T23:00:04.393Z,20.68
2022-08-07T23:02:27.315Z,20.69
2022-08-07T23:06:09.664Z,20.60
2022-08-07T23:07:41.279Z,20.62
2022-08-07T23:10:05.452Z,20.62
2022-08-07T23:12:30.606Z,20.63
2022-08-07T23:14:47.426Z,20.57
2022-08-07T23:17:15.691Z,20.54
2022-08-07T23:19:51.091Z,20.55
2022-08-07T23:21:56.092Z,20.54
2022-08-07T23:24:11.854Z,20.44
2022-08-07T23:26:25.068Z,20.32
2022-08-07T23:28:56.377Z,20.26
2022-08-07T23:31:18.531Z,20.22
2022-08-07T23:34:35.500Z,20.16
2022-08-07T23:36:29.001Z,20.22
2022-08-07T23:38:54.495Z,20.17
2022-08-07T23:41:04.049Z,20.22
2022-08-07T23:43:38.095Z,20.19
2022-08-07T23:46:01.635Z,20.14
2022-08-07T23:48:25.421Z,20.14
2022-08-07T23:50:36.791Z,20.04
2022-08-07T23:53:01.318Z,19.97
2022-08-07T23:55:12.686Z,19.98
2022-08-07T23:57:37.581Z,19.91
